Terminal Aerodrome Forecast
Issued by NWS Dallas/Fort Worth, TX

Home | Current Version | Previous Version | Text Only | Print | Product List | Glossary On
Versions: 1 2 3 4 5 6 7 8 9 10 11 12 13 14 15 16 17 18 19 20 21 22 23 24 25 26 27 28 29 30 31 32 33 34
000
FTUS44 KFWD 281728
TAFACT
TAF
KACT 281728Z 2818/2918 16006KT P6SM SCT025 BKN035
      TEMPO 2818/2819 BKN025
     FM282100 16010KT P6SM SCT035
     FM290900 17008KT P6SM SCT008 BKN015
      TEMPO 2911/2913 BKN008
     FM291600 16008KT P6SM SCT015 BKN025=

USA.gov is the U.S. government's official web portal to all federal, state and local government web resources and services.